createdAt,value
2022-12-03T00:06:22.639Z,94
2022-12-03T00:16:23.614Z,93
2022-12-03T00:26:24.319Z,93
2022-12-03T00:36:25.363Z,93
2022-12-03T00:56:26.153Z,92
2022-12-03T01:06:26.759Z,92
2022-12-03T01:16:27.320Z,92
2022-12-03T01:26:27.530Z,92
2022-12-03T01:36:28.387Z,92
2022-12-03T01:46:28.773Z,92
2022-12-03T01:56:29.705Z,92
2022-12-03T02:06:30.231Z,92
2022-12-03T02:16:30.592Z,92
2022-12-03T02:36:32.172Z,92
2022-12-03T02:56:32.637Z,93
2022-12-03T03:06:32.976Z,94
2022-12-03T03:16:33.579Z,94
2022-12-03T03:36:34.351Z,93
2022-12-03T03:56:35.062Z,93
2022-12-03T04:16:36.587Z,93
2022-12-03T04:26:36.930Z,93
2022-12-03T04:36:37.403Z,93
2022-12-03T04:56:38.767Z,93
2022-12-03T05:16:39.642Z,93
2022-12-03T05:26:40.479Z,93
2022-12-03T05:46:42.249Z,93
2022-12-03T05:56:43.084Z,93
2022-12-03T06:06:43.906Z,93
2022-12-03T06:16:44.486Z,93
2022-12-03T06:19:22.805Z,93
2022-12-03T06:26:52.695Z,93
2022-12-03T06:36:52.949Z,93
2022-12-03T06:46:53.231Z,94
2022-12-03T07:06:54.156Z,94
2022-12-03T07:16:55.095Z,94
2022-12-03T07:46:56.139Z,93
2022-12-03T08:06:57.391Z,92
2022-12-03T08:16:58.489Z,91
2022-12-03T08:36:59.584Z,91
2022-12-03T08:47:00.366Z,91
2022-12-03T08:57:00.671Z,92
2022-12-03T09:07:01.618Z,91
2022-12-03T09:17:02.116Z,91
2022-12-03T09:27:02.391Z,91
2022-12-03T09:37:03.005Z,91
2022-12-03T09:47:03.657Z,90
2022-12-03T09:57:04.490Z,90
2022-12-03T10:07:04.640Z,90
2022-12-03T10:17:05.370Z,90
2022-12-03T10:37:06.210Z,90
2022-12-03T10:47:06.504Z,89
2022-12-03T10:57:07.397Z,89
2022-12-03T11:07:07.702Z,89
2022-12-03T11:17:08.237Z,89
2022-12-03T11:27:08.640Z,89
2022-12-03T11:37:09.273Z,89
2022-12-03T11:47:09.940Z,89
2022-12-03T11:57:10.818Z,88
2022-12-03T12:07:11.396Z,89
2022-12-03T12:17:11.697Z,89
2022-12-03T12:27:11.996Z,88
2022-12-03T12:37:12.966Z,88
2022-12-03T12:47:13.755Z,88
2022-12-03T12:57:14.017Z,88
2022-12-03T13:07:14.500Z,88
2022-12-03T13:17:15.227Z,88
2022-12-03T13:27:15.921Z,88
2022-12-03T13:37:16.518Z,88
2022-12-03T13:47:16.918Z,88
2022-12-03T13:57:17.928Z,88
2022-12-03T14:07:18.712Z,87
2022-12-03T14:17:19.743Z,87
2022-12-03T14:37:21.182Z,88
2022-12-03T14:47:21.289Z,88
2022-12-03T14:57:21.483Z,88
2022-12-03T15:07:22.384Z,89
2022-12-03T15:17:29.657Z,89
2022-12-03T15:27:24.274Z,89
2022-12-03T15:37:24.722Z,89
2022-12-03T15:47:25.162Z,89
2022-12-03T15:57:26.139Z,89
2022-12-03T16:07:26.859Z,89
2022-12-03T16:27:28.113Z,89
2022-12-03T16:47:33.545Z,90
2022-12-03T17:07:30.644Z,90
2022-12-03T17:37:32.249Z,90
2022-12-03T17:47:33.210Z,90
2022-12-03T17:57:33.329Z,90
2022-12-03T18:17:33.776Z,90
2022-12-03T18:27:34.597Z,90
2022-12-03T18:47:36.183Z,90
2022-12-03T18:57:36.775Z,90
2022-12-03T19:07:37.993Z,91
2022-12-03T19:17:38.645Z,91
2022-12-03T19:27:39.407Z,91
2022-12-03T19:37:40.191Z,91
2022-12-03T19:47:41.267Z,92
2022-12-03T19:57:42.280Z,92
2022-12-03T20:07:43.387Z,92
2022-12-03T20:17:44.165Z,92
2022-12-03T20:27:45.088Z,92
2022-12-03T20:37:45.993Z,92
2022-12-03T20:47:46.332Z,92
2022-12-03T20:57:46.642Z,92
2022-12-03T21:07:47.442Z,92
2022-12-03T21:17:47.775Z,92
2022-12-03T21:27:48.268Z,92
2022-12-03T21:47:49.581Z,92
2022-12-03T21:57:49.855Z,92
2022-12-03T22:07:50.153Z,92
2022-12-03T22:17:51.132Z,92
2022-12-03T22:27:51.749Z,92
2022-12-03T22:37:51.833Z,92
2022-12-03T22:47:52.893Z,92
2022-12-03T22:57:53.853Z,92
2022-12-03T23:07:54.973Z,92
2022-12-03T23:17:55.488Z,92
2022-12-03T23:27:56.510Z,92
2022-12-03T23:37:57.036Z,92
2022-12-03T23:47:58.397Z,92
